createdAt,value
2023-04-29T00:02:05.688Z,99499.25
2023-04-29T00:06:09.074Z,99496.56
2023-04-29T00:10:14.789Z,99495.66
2023-04-29T00:14:17.918Z,99496.59
2023-04-29T00:18:22.314Z,99489.50
2023-04-29T00:22:25.527Z,99499.16
2023-04-29T00:26:28.590Z,99493.03
2023-04-29T00:30:32.666Z,99486.84
2023-04-29T00:34:37.245Z,99493.94
2023-04-29T00:38:40.321Z,99491.28
2023-04-29T00:42:43.707Z,99482.44
2023-04-29T00:46:46.781Z,99485.16
2023-04-29T00:50:51.997Z,99480.72
2023-04-29T00:54:55.202Z,99486.06
2023-04-29T00:58:59.777Z,99486.19
2023-04-29T01:03:04.263Z,99494.22
2023-04-29T01:07:18.369Z,99478.53
2023-04-29T01:11:27.283Z,99481.34
2023-04-29T01:15:36.265Z,99480.50
2023-04-29T01:19:47.068Z,99483.19
2023-04-29T01:23:56.077Z,99485.84
2023-04-29T01:28:09.292Z,99489.34
2023-04-29T01:32:18.804Z,99484.91
2023-04-29T01:36:32.818Z,99485.81
2023-04-29T01:40:44.277Z,99480.56
2023-04-29T01:44:56.639Z,99480.59
2023-04-29T01:49:01.362Z,99473.59
2023-04-29T01:53:04.888Z,99475.34
2023-04-29T01:57:09.384Z,99479.81
2023-04-29T02:01:38.258Z,99478.97
2023-04-29T02:05:41.540Z,99473.75
2023-04-29T02:09:44.719Z,99480.00
2023-04-29T02:13:50.280Z,99482.69
2023-04-29T02:17:54.203Z,99482.75
2023-04-29T02:21:57.547Z,99475.69
2023-04-29T02:26:03.993Z,99479.19
2023-04-29T02:30:09.894Z,99476.50
2023-04-29T02:34:12.945Z,99472.06
2023-04-29T02:38:16.146Z,99468.53
2023-04-29T02:42:20.356Z,99472.94
2023-04-29T02:46:24.878Z,99472.09
2023-04-29T02:50:29.137Z,99474.75
2023-04-29T02:54:32.189Z,99472.22
2023-04-29T02:58:35.338Z,99458.16
2023-04-29T03:02:39.886Z,99458.22
2023-04-29T03:06:43.690Z,99449.41
2023-04-29T03:10:48.042Z,99451.13
2023-04-29T03:14:51.895Z,99456.38
2023-04-29T03:18:56.301Z,99471.34
2023-04-29T03:23:00.934Z,99475.72
2023-04-29T03:27:04.876Z,99478.34
2023-04-29T03:31:12.014Z,99477.38
2023-04-29T03:35:16.678Z,99485.25
2023-04-29T03:39:57.941Z,99473.75
2023-04-29T03:44:01.703Z,99477.28
2023-04-29T03:48:06.667Z,99477.22
2023-04-29T03:52:12.563Z,99478.97
2023-04-29T03:56:17.402Z,99481.63
2023-04-29T04:00:21.390Z,99482.50
2023-04-29T04:04:30.316Z,99468.41
2023-04-29T04:08:36.450Z,99478.09
2023-04-29T04:12:52.068Z,99483.38
2023-04-29T04:16:55.727Z,99480.75
2023-04-29T04:20:59.080Z,99493.97
2023-04-29T04:25:04.581Z,99492.31
2023-04-29T04:29:08.319Z,99494.19
2023-04-29T04:33:21.397Z,99486.34
2023-04-29T04:37:25.345Z,99491.75
2023-04-29T04:41:32.846Z,99486.59
2023-04-29T04:45:37.739Z,99498.06
2023-04-29T04:49:41.316Z,99495.53
2023-04-29T04:53:44.669Z,99487.63
2023-04-29T04:57:56.591Z,99490.25
2023-04-29T05:01:59.747Z,99490.31
2023-04-29T05:06:02.818Z,99493.88
2023-04-29T05:10:08.650Z,99500.88
2023-04-29T05:14:20.712Z,99500.91
2023-04-29T05:18:24.050Z,99504.47
2023-04-29T05:22:28.504Z,99499.19
2023-04-29T05:26:31.679Z,99490.41
2023-04-29T05:30:38.889Z,99493.03
2023-04-29T05:34:44.547Z,99499.16
2023-04-29T05:38:47.616Z,99497.34
2023-04-29T05:42:50.959Z,99499.88
2023-04-29T05:46:55.713Z,99506.09
2023-04-29T05:50:58.908Z,99507.78
2023-04-29T05:55:02.372Z,99515.66
2023-04-29T05:59:22.058Z,99516.53
2023-04-29T06:03:32.499Z,99520.06
2023-04-29T06:08:08.384Z,99532.34
2023-04-29T06:12:22.641Z,99515.50
2023-04-29T06:16:26.086Z,99526.88
2023-04-29T06:20:31.850Z,99524.16
2023-04-29T06:24:35.289Z,99516.16
2023-04-29T06:28:39.085Z,99524.94
2023-04-29T06:32:42.650Z,99525.75
2023-04-29T06:36:47.110Z,99530.88
2023-04-29T06:41:19.931Z,99523.63
2023-04-29T06:45:31.997Z,99532.41
2023-04-29T06:49:44.563Z,99530.59
2023-04-29T06:53:49.031Z,99537.63
2023-04-29T06:57:52.075Z,99543.72
2023-04-29T07:01:55.119Z,99542.66
2023-04-29T07:05:58.174Z,99539.88
2023-04-29T07:10:02.578Z,99542.47
2023-04-29T07:14:05.838Z,99536.19
2023-04-29T07:18:08.909Z,99521.94
2023-04-29T07:22:12.395Z,99527.78
2023-04-29T07:26:18.802Z,99539.91
2023-04-29T07:30:22.441Z,99536.22
2023-04-29T07:34:25.626Z,99525.25
2023-04-29T07:38:29.702Z,99523.88
2023-04-29T07:42:35.309Z,99534.16
2023-04-29T07:46:38.684Z,99533.28
2023-04-29T07:50:42.623Z,99541.31
2023-04-29T07:54:46.049Z,99542.97
2023-04-29T07:58:50.426Z,99553.50
2023-04-29T08:02:53.731Z,99541.91
2023-04-29T08:06:57.440Z,99537.28
2023-04-29T08:11:01.418Z,99533.50
2023-04-29T08:15:09.677Z,99532.16
2023-04-29T08:19:13.122Z,99539.53
2023-04-29T08:23:16.412Z,99536.47
2023-04-29T08:27:20.400Z,99540.75
2023-04-29T08:31:24.783Z,99545.16
2023-04-29T08:35:28.002Z,99540.69
2023-04-29T08:39:31.300Z,99543.28
2023-04-29T08:43:37.322Z,99539.47
2023-04-29T08:47:42.394Z,99543.31
2023-04-29T08:51:45.568Z,99537.81
2023-04-29T08:55:49.596Z,99539.44
2023-04-29T08:59:52.928Z,99537.53
2023-04-29T09:04:06.228Z,99533.53
2023-04-29T09:08:09.933Z,99530.06
2023-04-29T09:12:12.906Z,99525.72
2023-04-29T09:16:16.238Z,99530.22
2023-04-29T09:20:31.317Z,99543.63
2023-04-29T09:24:34.530Z,99543.63
2023-04-29T09:28:37.513Z,99544.69
2023-04-29T09:32:41.077Z,99554.63
2023-04-29T09:36:48.778Z,99548.69
2023-04-29T09:40:59.509Z,99545.25
2023-04-29T09:45:02.941Z,99547.97
2023-04-29T09:49:23.991Z,99555.81
2023-04-29T09:53:31.676Z,99551.03
2023-04-29T09:57:43.350Z,99556.09
2023-04-29T10:01:51.132Z,99549.06
2023-04-29T10:05:55.462Z,99550.00
2023-04-29T10:09:59.816Z,99561.56
2023-04-29T10:14:04.517Z,99555.31
2023-04-29T10:18:20.978Z,99558.72
2023-04-29T10:22:30.600Z,99555.16
2023-04-29T10:26:37.179Z,99559.44
2023-04-29T10:30:41.274Z,99545.38
2023-04-29T10:34:44.994Z,99540.78
2023-04-29T10:38:53.287Z,99526.88
2023-04-29T10:42:58.224Z,99524.44
2023-04-29T10:47:20.238Z,99524.78
2023-04-29T10:51:31.523Z,99512.28
2023-04-29T10:55:37.517Z,99513.75
2023-04-29T10:59:48.370Z,99511.56
2023-04-29T11:03:58.716Z,99507.84
2023-04-29T11:08:13.332Z,99492.59
2023-04-29T11:12:22.004Z,99487.44
2023-04-29T11:16:29.916Z,99486.03
2023-04-29T11:20:54.500Z,99477.50
2023-04-29T11:25:00.800Z,99473.28
2023-04-29T11:29:06.018Z,99485.75
2023-04-29T11:33:11.701Z,99495.66
2023-04-29T11:37:20.216Z,99480.81
2023-04-29T11:41:24.249Z,99483.09
2023-04-29T11:45:28.238Z,99465.56
2023-04-29T11:49:33.789Z,99470.16
2023-04-29T11:53:37.223Z,99464.16
2023-04-29T11:57:40.651Z,99455.38
2023-04-29T12:01:44.095Z,99457.28
2023-04-29T12:05:53.038Z,99491.13
2023-04-29T12:09:57.550Z,99480.69
2023-04-29T12:14:02.738Z,99464.88
2023-04-29T12:18:06.380Z,99459.66
2023-04-29T12:22:11.216Z,99477.38
2023-04-29T12:26:14.869Z,99480.69
2023-04-29T12:30:18.075Z,99487.88
2023-04-29T12:34:26.612Z,99489.56
2023-04-29T12:38:32.768Z,99491.25
2023-04-29T12:42:36.344Z,99492.16
2023-04-29T12:46:40.791Z,99487.84
2023-04-29T12:50:43.999Z,99489.69
2023-04-29T12:54:48.555Z,99502.97
2023-04-29T12:58:51.711Z,99517.25
2023-04-29T13:02:55.322Z,99497.81
2023-04-29T13:07:00.558Z,99488.28
2023-04-29T13:11:05.190Z,99485.94
2023-04-29T13:15:10.494Z,99474.31
2023-04-29T13:19:30.536Z,99469.50
2023-04-29T13:23:36.647Z,99460.31
2023-04-29T13:27:41.045Z,99462.38
2023-04-29T13:31:44.329Z,99458.31
2023-04-29T13:35:49.409Z,99454.44
2023-04-29T13:39:57.243Z,99445.66
2023-04-29T13:44:02.465Z,99450.63
2023-04-29T13:48:16.951Z,99448.69
2023-04-29T14:04:50.092Z,99431.16
2023-04-29T14:08:53.549Z,99437.41
2023-04-29T14:12:57.025Z,99430.28
2023-04-29T14:17:01.668Z,99419.63
2023-04-29T14:21:05.191Z,99418.75
2023-04-29T14:25:09.531Z,99410.69
2023-04-29T14:29:12.785Z,99409.66
2023-04-29T14:33:17.280Z,99425.53
2023-04-29T14:37:20.507Z,99431.50
2023-04-29T14:41:23.686Z,99412.63
2023-04-29T14:45:27.149Z,99409.84
2023-04-29T14:49:31.809Z,99412.22
2023-04-29T14:53:35.127Z,99440.34
2023-04-29T14:57:38.367Z,99426.97
2023-04-29T15:01:41.650Z,99424.31
2023-04-29T15:05:46.202Z,99423.31
2023-04-29T15:09:50.578Z,99398.44
2023-04-29T15:13:53.714Z,99411.00
2023-04-29T15:17:57.199Z,99413.97
2023-04-29T15:22:01.699Z,99414.41
2023-04-29T15:26:04.998Z,99451.22
2023-04-29T15:30:09.024Z,99512.66
2023-04-29T15:34:12.106Z,99531.59
2023-04-29T15:38:16.645Z,99518.50
2023-04-29T15:42:19.820Z,99513.53
2023-04-29T15:46:23.196Z,99516.63
2023-04-29T15:50:26.552Z,99479.72
2023-04-29T15:54:31.298Z,99439.16
2023-04-29T15:58:34.726Z,99465.97
2023-04-29T16:02:37.765Z,99465.19
2023-04-29T16:06:41.826Z,99474.03
2023-04-29T16:10:46.456Z,99490.88
2023-04-29T16:14:50.267Z,99500.47
2023-04-29T16:18:53.339Z,99510.19
2023-04-29T16:22:56.499Z,99518.16
2023-04-29T16:27:01.554Z,99505.72
2023-04-29T16:31:05.039Z,99490.66
2023-04-29T16:35:08.600Z,99497.00
2023-04-29T16:39:11.716Z,99515.56
2023-04-29T16:43:16.131Z,99522.56
2023-04-29T16:47:20.378Z,99527.00
2023-04-29T16:51:25.108Z,99525.28
2023-04-29T16:55:28.140Z,99521.75
2023-04-29T16:59:32.704Z,99526.22
2023-04-29T17:03:36.085Z,99521.75
2023-04-29T17:07:39.643Z,99539.50
2023-04-29T17:11:42.854Z,99551.97
2023-04-29T17:15:47.273Z,99555.56
2023-04-29T17:19:51.788Z,99560.94
2023-04-29T17:23:55.054Z,99557.47
2023-04-29T17:27:58.142Z,99569.97
2023-04-29T17:32:10.156Z,99568.38
2023-04-29T17:36:13.319Z,99574.72
2023-04-29T17:40:16.256Z,99574.91
2023-04-29T17:44:21.186Z,99581.25
2023-04-29T17:48:26.973Z,99587.56
2023-04-29T17:52:30.084Z,99592.19
2023-04-29T17:56:35.084Z,99588.66
2023-04-29T18:00:38.883Z,99589.66
2023-04-29T18:04:43.223Z,99601.22
2023-04-29T18:08:46.288Z,99601.28
2023-04-29T18:12:49.392Z,99610.31
2023-04-29T18:16:52.640Z,99613.91
2023-04-29T18:20:57.271Z,99617.56
2023-04-29T18:25:00.573Z,99616.81
2023-04-29T18:29:04.371Z,99621.28
2023-04-29T18:33:07.569Z,99612.53
2023-04-29T18:37:12.133Z,99637.38
2023-04-29T18:41:15.172Z,99649.03
2023-04-29T18:45:18.129Z,99649.19
2023-04-29T18:49:21.250Z,99643.09
2023-04-29T18:53:25.740Z,99640.56
2023-04-29T18:57:28.858Z,99660.09
2023-04-29T19:01:31.980Z,99665.41
2023-04-29T19:05:35.058Z,99667.25
2023-04-29T19:09:39.394Z,99677.06
2023-04-29T19:13:42.583Z,99682.50
2023-04-29T19:17:45.576Z,99690.59
2023-04-29T19:21:49.526Z,99687.97
2023-04-29T19:25:53.856Z,99688.03
2023-04-29T19:29:56.943Z,99681.94
2023-04-29T19:33:59.957Z,99693.47
2023-04-29T19:38:03.148Z,99711.22
2023-04-29T19:42:07.624Z,99716.56
2023-04-29T19:46:13.416Z,99719.28
2023-04-29T19:50:24.165Z,99720.22
2023-04-29T19:54:28.619Z,99719.31
2023-04-29T19:58:33.045Z,99721.13
2023-04-29T20:02:36.682Z,99724.63
2023-04-29T20:06:39.814Z,99729.06
2023-04-29T20:10:42.990Z,99729.13
2023-04-29T20:14:47.466Z,99736.22
2023-04-29T20:18:50.482Z,99734.53
2023-04-29T20:22:57.875Z,99743.53
2023-04-29T20:27:01.583Z,99739.13
2023-04-29T20:31:06.903Z,99748.03
2023-04-29T20:35:10.410Z,99758.66
2023-04-29T20:39:13.412Z,99757.81
2023-04-29T20:43:16.492Z,99752.56
2023-04-29T20:47:21.321Z,99757.94
2023-04-29T20:51:24.469Z,99752.75
2023-04-29T20:55:27.549Z,99767.84
2023-04-29T20:59:30.555Z,99768.81
2023-04-29T21:03:35.357Z,99765.31
2023-04-29T21:07:38.589Z,99762.75
2023-04-29T21:11:41.544Z,99760.16
2023-04-29T21:15:45.668Z,99753.16
2023-04-29T21:19:50.053Z,99764.69
2023-04-29T21:23:53.124Z,99763.88
2023-04-29T21:27:56.082Z,99776.31
2023-04-29T21:31:59.103Z,99776.34
2023-04-29T21:36:03.442Z,99764.88
2023-04-29T21:40:07.607Z,99777.22
2023-04-29T21:44:10.755Z,99795.81
2023-04-29T21:48:16.636Z,99817.00
2023-04-29T21:52:20.977Z,99810.78
2023-04-29T21:56:24.724Z,99812.63
2023-04-29T22:00:33.540Z,99815.25
2023-04-29T22:04:38.248Z,99825.91
2023-04-29T22:08:42.624Z,99819.72
2023-04-29T22:12:46.008Z,99829.47
2023-04-29T22:16:49.035Z,99825.97
2023-04-29T22:20:52.185Z,99821.63
2023-04-29T22:24:57.754Z,99822.50
2023-04-29T22:29:03.256Z,99814.63
2023-04-29T22:33:07.589Z,99813.75
2023-04-29T22:37:13.372Z,99819.09
2023-04-29T22:41:18.854Z,99825.28
2023-04-29T22:45:21.945Z,99834.13
2023-04-29T22:49:25.669Z,99824.41
2023-04-29T22:53:28.747Z,99822.66
2023-04-29T22:57:33.169Z,99825.34
2023-04-29T23:01:36.738Z,99835.09
2023-04-29T23:05:40.007Z,99841.28
2023-04-29T23:09:43.074Z,99845.72
2023-04-29T23:13:47.581Z,99849.25
2023-04-29T23:17:50.703Z,99854.59
2023-04-29T23:21:53.707Z,99850.19
2023-04-29T23:25:56.831Z,99851.09
2023-04-29T23:30:01.199Z,99849.34
2023-04-29T23:34:04.312Z,99852.06
2023-04-29T23:38:07.661Z,99849.47
2023-04-29T23:42:10.725Z,99853.91
2023-04-29T23:46:15.087Z,99846.03
2023-04-29T23:50:18.201Z,99863.72
2023-04-29T23:54:21.172Z,99870.81
2023-04-29T23:58:24.261Z,99868.25
